createdAt,value
2019-05-28T00:02:08.822Z,22.62
2019-05-28T00:04:42.181Z,23.69
2019-05-28T00:07:15.553Z,22.75
2019-05-28T00:09:48.897Z,21.96
2019-05-28T00:12:22.319Z,21.41
2019-05-28T00:14:55.608Z,21.01
2019-05-28T00:17:28.895Z,20.69
2019-05-28T00:20:03.298Z,20.42
2019-05-28T00:22:36.784Z,20.17
2019-05-28T00:25:10.434Z,22.56
2019-05-28T00:27:43.780Z,23.68
2019-05-28T00:30:20.213Z,22.69
2019-05-28T00:32:52.845Z,21.92
2019-05-28T00:35:26.335Z,21.37
2019-05-28T00:37:59.668Z,20.97
2019-05-28T00:40:33.032Z,20.64
2019-05-28T00:43:06.405Z,20.36
2019-05-28T00:45:39.772Z,22.38
2019-05-28T00:48:13.260Z,25.41
2019-05-28T00:50:47.632Z,25.27
2019-05-28T00:53:20.997Z,23.92
2019-05-28T00:55:56.248Z,22.94
2019-05-28T00:58:30.892Z,22.31
2019-05-28T01:01:04.379Z,21.79
2019-05-28T01:03:37.720Z,21.41
2019-05-28T01:06:11.098Z,21.06
2019-05-28T01:08:44.368Z,20.75
2019-05-28T01:11:17.748Z,20.45
2019-05-28T01:13:52.732Z,22.79
2019-05-28T01:16:27.434Z,23.82
2019-05-28T01:19:00.741Z,22.86
2019-05-28T01:21:34.179Z,22.04
2019-05-28T01:24:07.508Z,21.44
2019-05-28T01:26:41.645Z,21.00
2019-05-28T01:29:15.803Z,20.63
2019-05-28T01:31:49.124Z,22.73
2019-05-28T01:34:22.351Z,25.95
2019-05-28T01:36:55.594Z,25.64
2019-05-28T01:39:28.928Z,24.14
2019-05-28T01:42:02.174Z,23.11
2019-05-28T01:44:35.515Z,22.39
2019-05-28T01:47:08.777Z,21.86
2019-05-28T01:49:42.482Z,21.45
2019-05-28T01:52:15.798Z,21.06
2019-05-28T01:54:50.145Z,20.72
2019-05-28T01:57:23.405Z,23.10
2019-05-28T01:59:56.732Z,26.09
2019-05-28T02:02:30.066Z,25.62
2019-05-28T02:05:07.507Z,24.18
2019-05-28T02:07:40.880Z,23.16
2019-05-28T02:10:14.420Z,22.45
2019-05-28T02:12:47.643Z,21.92
2019-05-28T02:15:21.280Z,21.48
2019-05-28T02:17:54.622Z,21.14
2019-05-28T02:20:27.927Z,23.33
2019-05-28T02:23:01.107Z,24.38
2019-05-28T02:25:34.424Z,23.34
2019-05-28T02:28:07.895Z,22.45
2019-05-28T02:30:41.270Z,21.86
2019-05-28T02:33:14.500Z,21.38
2019-05-28T02:35:47.742Z,23.44
2019-05-28T02:38:20.988Z,26.43
2019-05-28T02:40:54.321Z,25.85
2019-05-28T02:43:28.691Z,24.41
2019-05-28T02:46:01.942Z,23.38
2019-05-28T02:48:36.191Z,22.65
2019-05-28T02:51:09.452Z,22.13
2019-05-28T02:53:42.823Z,21.70
2019-05-28T02:56:19.402Z,21.31
2019-05-28T02:58:53.445Z,23.52
2019-05-28T03:01:43.004Z,26.58
2019-05-28T03:04:04.931Z,26.27
2019-05-28T03:06:40.828Z,24.75
2019-05-28T03:09:14.056Z,23.65
2019-05-28T03:11:47.377Z,22.93
2019-05-28T03:14:20.648Z,22.36
2019-05-28T03:16:58.484Z,21.93
2019-05-28T03:19:32.900Z,21.52
2019-05-28T03:22:07.696Z,23.61
2019-05-28T03:24:41.787Z,26.36
2019-05-28T03:27:15.056Z,25.97
2019-05-28T03:29:48.330Z,24.54
2019-05-28T03:32:21.664Z,23.54
2019-05-28T03:34:54.860Z,22.83
2019-05-28T03:37:28.821Z,22.31
2019-05-28T03:40:04.497Z,21.83
2019-05-28T03:42:38.666Z,21.42
2019-05-28T03:45:12.071Z,23.66
2019-05-28T03:47:45.389Z,26.37
2019-05-28T03:50:18.808Z,25.95
2019-05-28T03:52:52.045Z,24.52
2019-05-28T03:55:25.342Z,23.55
2019-05-28T03:57:58.830Z,22.85
2019-05-28T04:00:32.046Z,22.31
2019-05-28T04:03:05.349Z,21.87
2019-05-28T04:05:38.583Z,23.97
2019-05-28T04:08:11.852Z,24.82
2019-05-28T04:10:45.186Z,23.76
2019-05-28T04:13:18.459Z,22.86
2019-05-28T04:15:51.703Z,22.23
2019-05-28T04:18:25.004Z,21.74
2019-05-28T04:20:58.152Z,23.93
2019-05-28T04:23:31.295Z,26.75
2019-05-28T04:26:04.487Z,26.31
2019-05-28T04:28:37.702Z,24.86
2019-05-28T04:31:10.842Z,23.82
2019-05-28T04:33:43.923Z,23.06
2019-05-28T04:36:17.271Z,22.51
2019-05-28T04:38:50.496Z,22.04
2019-05-28T04:41:23.703Z,24.11
2019-05-28T04:43:57.011Z,25.11
2019-05-28T04:46:30.262Z,24.00
2019-05-28T04:49:03.481Z,23.09
2019-05-28T04:51:36.727Z,22.45
2019-05-28T04:54:09.885Z,21.93
2019-05-28T04:56:44.104Z,24.20
2019-05-28T04:59:17.343Z,27.01
2019-05-28T05:01:50.571Z,26.46
2019-05-28T05:04:23.715Z,25.00
2019-05-28T05:06:56.970Z,23.99
2019-05-28T05:09:30.253Z,23.24
2019-05-28T05:12:03.432Z,22.68
2019-05-28T05:14:36.783Z,22.21
2019-05-28T05:17:10.011Z,21.79
2019-05-28T05:19:43.144Z,24.18
2019-05-28T05:22:16.250Z,27.36
2019-05-28T05:24:49.451Z,26.86
2019-05-28T05:27:22.681Z,25.33
2019-05-28T05:29:55.921Z,24.17
2019-05-28T05:32:31.546Z,23.38
2019-05-28T05:35:04.890Z,22.79
2019-05-28T05:37:38.109Z,22.35
2019-05-28T05:40:13.471Z,21.96
2019-05-28T05:42:47.391Z,24.41
2019-05-28T05:45:21.050Z,25.34
2019-05-28T05:47:54.364Z,24.18
2019-05-28T05:50:27.657Z,23.27
2019-05-28T05:53:00.892Z,22.62
2019-05-28T05:55:34.107Z,22.15
2019-05-28T05:58:07.288Z,24.48
2019-05-28T06:00:40.837Z,27.34
2019-05-28T06:03:14.038Z,26.78
2019-05-28T06:05:47.276Z,25.36
2019-05-28T06:08:20.534Z,24.30
2019-05-28T06:10:53.837Z,23.56
2019-05-28T06:13:27.037Z,22.99
2019-05-28T06:16:00.153Z,22.51
2019-05-28T06:18:33.452Z,24.59
2019-05-28T06:21:13.621Z,25.49
2019-05-28T06:23:41.661Z,24.40
2019-05-28T06:26:14.916Z,23.52
2019-05-28T06:28:48.131Z,22.89
2019-05-28T06:31:21.379Z,22.42
2019-05-28T06:33:57.288Z,24.55
2019-05-28T06:36:29.403Z,25.54
2019-05-28T06:39:02.640Z,24.43
2019-05-28T06:41:35.848Z,23.52
2019-05-28T06:44:09.082Z,22.85
2019-05-28T06:46:42.227Z,22.36
2019-05-28T06:49:15.517Z,24.59
2019-05-28T06:51:48.763Z,25.47
2019-05-28T06:54:21.988Z,24.41
2019-05-28T06:56:55.148Z,23.55
2019-05-28T06:59:28.427Z,22.91
2019-05-28T07:02:01.998Z,22.45
2019-05-28T07:04:35.231Z,24.66
2019-05-28T07:07:08.440Z,27.72
2019-05-28T07:09:41.733Z,27.31
2019-05-28T07:12:17.851Z,25.81
2019-05-28T07:14:49.845Z,24.68
2019-05-28T07:17:24.396Z,23.89
2019-05-28T07:19:57.814Z,23.31
2019-05-28T07:22:31.041Z,22.83
2019-05-28T07:25:04.323Z,22.44
2019-05-28T07:27:37.526Z,24.61
2019-05-28T07:30:11.228Z,25.55
2019-05-28T07:32:44.473Z,24.52
2019-05-28T07:35:17.711Z,23.66
2019-05-28T07:37:50.918Z,23.01
2019-05-28T07:40:31.486Z,22.52
2019-05-28T07:42:58.977Z,22.14
2019-05-28T07:45:33.546Z,24.44
2019-05-28T07:48:06.768Z,25.41
2019-05-28T07:50:39.993Z,24.31
2019-05-28T07:53:13.231Z,23.41
2019-05-28T07:55:46.492Z,22.78
2019-05-28T07:58:19.739Z,22.28
2019-05-28T08:00:52.922Z,21.87
2019-05-28T08:03:26.161Z,24.20
2019-05-28T08:05:59.385Z,27.36
2019-05-28T08:08:32.817Z,26.95
2019-05-28T08:11:06.022Z,25.41
2019-05-28T08:13:40.979Z,24.30
2019-05-28T08:16:18.778Z,23.48
2019-05-28T08:18:49.980Z,22.90
2019-05-28T08:21:23.227Z,22.44
2019-05-28T08:23:56.430Z,22.03
2019-05-28T08:26:29.624Z,24.21
2019-05-28T08:29:02.838Z,25.20
2019-05-28T08:31:35.976Z,24.10
2019-05-28T08:34:09.379Z,23.17
2019-05-28T08:36:42.644Z,22.51
2019-05-28T08:39:15.992Z,22.01
2019-05-28T08:41:49.266Z,23.96
2019-05-28T08:44:22.473Z,27.07
2019-05-28T08:46:55.719Z,26.75
2019-05-28T08:49:29.052Z,25.26
2019-05-28T08:52:02.302Z,24.18
2019-05-28T08:54:36.018Z,23.46
2019-05-28T08:57:09.313Z,22.87
2019-05-28T08:59:42.631Z,22.42
2019-05-28T09:02:27.281Z,22.08
2019-05-28T09:04:50.780Z,24.38
2019-05-28T09:07:24.075Z,27.41
2019-05-28T09:09:57.293Z,26.95
2019-05-28T09:12:30.502Z,25.51
2019-05-28T09:15:03.652Z,24.45
2019-05-28T09:17:36.948Z,23.71
2019-05-28T09:20:11.081Z,23.16
2019-05-28T09:22:44.356Z,22.70
2019-05-28T09:25:18.579Z,22.32
2019-05-28T09:27:51.845Z,24.51
2019-05-28T09:30:25.111Z,25.33
2019-05-28T09:32:58.543Z,24.25
2019-05-28T09:35:43.984Z,23.40
2019-05-28T09:38:06.707Z,22.80
2019-05-28T09:40:49.728Z,22.31
2019-05-28T09:43:14.791Z,24.69
2019-05-28T09:45:48.021Z,27.58
2019-05-28T09:48:21.454Z,27.19
2019-05-28T09:50:54.684Z,25.71
2019-05-28T09:53:27.957Z,24.62
2019-05-28T09:56:02.783Z,23.90
2019-05-28T09:58:36.213Z,23.34
2019-05-28T10:01:09.535Z,22.89
2019-05-28T10:03:42.761Z,22.48
2019-05-28T10:06:17.856Z,24.65
2019-05-28T10:08:51.794Z,25.60
2019-05-28T10:11:25.607Z,24.54
2019-05-28T10:13:58.935Z,23.63
2019-05-28T10:16:32.143Z,23.06
2019-05-28T10:19:05.317Z,22.55
2019-05-28T10:21:38.520Z,24.61
2019-05-28T10:24:11.761Z,27.23
2019-05-28T10:26:44.997Z,26.30
2019-05-28T10:29:18.221Z,24.98
2019-05-28T10:31:51.298Z,24.09
2019-05-28T10:34:24.555Z,23.44
2019-05-28T10:36:57.723Z,22.87
2019-05-28T10:39:31.081Z,22.48
2019-05-28T10:42:04.384Z,24.61
2019-05-28T10:44:37.613Z,25.57
2019-05-28T10:47:10.893Z,24.44
2019-05-28T10:49:44.031Z,23.59
2019-05-28T10:52:17.235Z,22.96
2019-05-28T10:54:50.478Z,22.45
2019-05-28T10:57:23.628Z,22.06
2019-05-28T10:59:56.961Z,24.43
2019-05-28T11:02:30.098Z,27.51
2019-05-28T11:05:03.435Z,27.05
2019-05-28T11:07:36.630Z,25.57
2019-05-28T11:10:23.191Z,24.50
2019-05-28T11:12:46.171Z,23.78
2019-05-28T11:15:23.804Z,23.18
2019-05-28T11:17:55.622Z,22.75
2019-05-28T11:20:30.779Z,22.35
2019-05-28T11:23:04.018Z,22.00
2019-05-28T11:25:37.176Z,24.28
2019-05-28T11:28:10.332Z,27.40
2019-05-28T11:30:43.663Z,26.64
2019-05-28T11:33:17.524Z,25.23
2019-05-28T11:35:51.060Z,24.20
2019-05-28T11:38:24.322Z,23.48
2019-05-28T11:40:57.648Z,22.96
2019-05-28T11:43:30.865Z,22.51
2019-05-28T11:46:04.117Z,22.14
2019-05-28T11:48:37.631Z,21.79
2019-05-28T11:51:10.885Z,23.96
2019-05-28T11:53:44.332Z,24.76
2019-05-28T11:56:17.669Z,23.72
2019-05-28T11:59:04.559Z,22.91
2019-05-28T12:01:42.202Z,22.27
2019-05-28T12:04:15.453Z,21.83
2019-05-28T12:06:48.678Z,21.48
2019-05-28T12:09:21.929Z,21.17
2019-05-28T12:11:55.359Z,20.89
2019-05-28T12:14:28.596Z,20.62
2019-05-28T12:17:01.851Z,23.10
2019-05-28T12:19:35.133Z,24.23
2019-05-28T12:22:08.318Z,23.18
2019-05-28T12:24:41.521Z,22.38
2019-05-28T12:27:14.776Z,21.80
2019-05-28T12:29:51.890Z,21.37
2019-05-28T12:32:22.955Z,21.04
2019-05-28T12:34:56.261Z,20.82
2019-05-28T12:37:47.032Z,23.28
2019-05-28T12:40:06.052Z,24.20
2019-05-28T12:42:40.774Z,23.18
2019-05-28T12:45:15.221Z,22.39
2019-05-28T12:48:07.188Z,21.83
2019-05-28T12:50:23.707Z,21.40
2019-05-28T12:52:56.943Z,21.08
2019-05-28T12:55:30.240Z,20.79
2019-05-28T12:58:03.494Z,23.16
2019-05-28T13:00:38.211Z,24.13
2019-05-28T13:03:11.543Z,23.18
2019-05-28T13:05:44.836Z,22.36
2019-05-28T13:08:19.278Z,21.79
2019-05-28T13:10:52.509Z,21.40
2019-05-28T13:13:25.856Z,21.04
2019-05-28T13:15:59.138Z,20.77
2019-05-28T13:18:32.378Z,23.17
2019-05-28T13:21:05.666Z,24.10
2019-05-28T13:23:38.919Z,23.10
2019-05-28T13:26:14.757Z,22.32
2019-05-28T13:28:47.306Z,21.74
2019-05-28T13:31:21.936Z,21.32
2019-05-28T13:33:55.742Z,20.97
2019-05-28T13:36:29.089Z,20.66
2019-05-28T13:39:03.372Z,20.41
2019-05-28T13:41:36.702Z,20.17
2019-05-28T13:44:10.010Z,22.55
2019-05-28T13:46:43.307Z,23.58
2019-05-28T13:49:16.564Z,22.63
2019-05-28T13:51:52.893Z,21.84
2019-05-28T13:54:29.677Z,21.31
2019-05-28T13:57:02.888Z,20.90
2019-05-28T13:59:36.132Z,20.58
2019-05-28T14:02:09.429Z,22.86
2019-05-28T14:04:42.982Z,23.92
2019-05-28T14:07:16.352Z,22.91
2019-05-28T14:09:49.548Z,22.11
2019-05-28T14:12:23.257Z,21.51
2019-05-28T14:14:56.499Z,21.08
2019-05-28T14:17:29.838Z,20.75
2019-05-28T14:20:03.300Z,20.45
2019-05-28T14:22:37.214Z,20.15
2019-05-28T14:25:10.965Z,22.69
2019-05-28T14:27:44.155Z,23.62
2019-05-28T14:30:18.510Z,22.65
2019-05-28T14:32:52.033Z,21.86
2019-05-28T14:35:25.339Z,21.27
2019-05-28T14:37:58.625Z,20.89
2019-05-28T14:40:32.610Z,20.59
2019-05-28T14:43:06.403Z,20.27
2019-05-28T14:45:39.647Z,20.03
2019-05-28T14:48:12.849Z,19.81
2019-05-28T14:50:46.512Z,22.36
2019-05-28T14:53:19.812Z,23.35
2019-05-28T14:55:53.061Z,22.34
2019-05-28T14:58:26.341Z,21.51
2019-05-28T15:00:59.569Z,20.93
2019-05-28T15:03:32.823Z,20.51
2019-05-28T15:06:07.091Z,20.20
2019-05-28T15:08:40.326Z,19.91
2019-05-28T15:11:13.610Z,19.66
2019-05-28T15:13:46.845Z,19.42
2019-05-28T15:16:20.494Z,21.87
2019-05-28T15:18:53.712Z,22.69
2019-05-28T15:21:28.031Z,21.72
2019-05-28T15:24:01.275Z,20.97
2019-05-28T15:26:34.597Z,20.48
2019-05-28T15:29:07.771Z,20.11
2019-05-28T15:31:41.037Z,19.79
2019-05-28T15:34:14.256Z,19.53
2019-05-28T15:36:47.491Z,21.83
2019-05-28T15:39:38.208Z,22.93
2019-05-28T15:41:55.759Z,21.95
2019-05-28T15:44:29.305Z,21.15
2019-05-28T15:47:02.629Z,20.55
2019-05-28T15:49:35.841Z,20.10
2019-05-28T15:52:09.064Z,19.77
2019-05-28T15:54:42.315Z,19.49
2019-05-28T15:57:15.682Z,21.86
2019-05-28T15:59:50.462Z,22.80
2019-05-28T16:02:23.822Z,21.80
2019-05-28T16:04:57.182Z,21.00
2019-05-28T16:07:30.424Z,20.45
2019-05-28T16:10:03.766Z,20.03
2019-05-28T16:12:37.094Z,19.66
2019-05-28T16:15:14.489Z,19.38
2019-05-28T16:17:48.000Z,19.08
2019-05-28T16:20:22.034Z,21.56
2019-05-28T16:22:55.312Z,22.66
2019-05-28T16:25:28.572Z,21.58
2019-05-28T16:28:01.849Z,20.73
2019-05-28T16:30:35.178Z,20.17
2019-05-28T16:33:08.775Z,19.76
2019-05-28T16:35:42.769Z,19.41
2019-05-28T16:38:16.037Z,21.72
2019-05-28T16:40:53.135Z,22.63
2019-05-28T16:43:26.482Z,21.62
2019-05-28T16:45:59.829Z,20.80
2019-05-28T16:48:33.551Z,20.22
2019-05-28T16:51:06.815Z,19.74
2019-05-28T16:53:40.130Z,19.32
2019-05-28T16:56:15.070Z,19.01
2019-05-28T16:58:48.416Z,21.45
2019-05-28T17:01:23.166Z,22.32
2019-05-28T17:03:57.647Z,21.31
2019-05-28T17:06:30.973Z,20.49
2019-05-28T17:09:04.690Z,19.88
2019-05-28T17:11:39.604Z,19.46
2019-05-28T17:14:14.069Z,21.68
2019-05-28T17:16:50.999Z,22.65
2019-05-28T17:19:25.211Z,21.58
2019-05-28T17:21:59.706Z,20.69
2019-05-28T17:24:33.900Z,20.08
2019-05-28T17:27:07.528Z,19.59
2019-05-28T17:29:41.045Z,19.14
2019-05-28T17:32:14.547Z,18.82
2019-05-28T17:34:49.194Z,21.11
2019-05-28T17:37:22.816Z,24.50
2019-05-28T17:39:56.248Z,24.01
2019-05-28T17:42:29.663Z,22.50
2019-05-28T17:45:03.224Z,21.40
2019-05-28T17:47:43.093Z,20.62
2019-05-28T17:50:11.927Z,20.03
2019-05-28T17:52:45.893Z,19.55
2019-05-28T17:55:19.639Z,19.15
2019-05-28T17:57:54.745Z,18.82
2019-05-28T18:00:28.211Z,21.30
2019-05-28T18:03:02.054Z,24.44
2019-05-28T18:05:35.374Z,23.88
2019-05-28T18:08:09.031Z,22.39
2019-05-28T18:10:42.421Z,21.35
2019-05-28T18:13:15.706Z,20.62
2019-05-28T18:15:49.326Z,20.04
2019-05-28T18:18:22.765Z,19.56
2019-05-28T18:20:56.391Z,19.15
2019-05-28T18:23:29.779Z,18.82
2019-05-28T18:26:03.447Z,21.03
2019-05-28T18:28:36.925Z,24.23
2019-05-28T18:31:10.395Z,23.48
2019-05-28T18:33:44.781Z,22.00
2019-05-28T18:36:18.063Z,20.96
2019-05-28T18:38:51.461Z,20.22
2019-05-28T18:41:24.809Z,19.66
2019-05-28T18:44:01.324Z,19.21
2019-05-28T18:46:33.072Z,18.79
2019-05-28T18:49:06.623Z,18.42
2019-05-28T18:51:39.906Z,20.76
2019-05-28T18:54:13.176Z,21.73
2019-05-28T18:56:46.766Z,20.66
2019-05-28T18:59:20.055Z,19.77
2019-05-28T19:01:54.081Z,19.11
2019-05-28T19:04:27.662Z,18.58
2019-05-28T19:07:01.003Z,18.18
2019-05-28T19:09:34.221Z,20.56
2019-05-28T19:12:07.602Z,23.82
2019-05-28T19:14:40.928Z,23.38
2019-05-28T19:17:14.257Z,21.83
2019-05-28T19:19:47.803Z,20.70
2019-05-28T19:22:22.698Z,19.88
2019-05-28T19:24:57.389Z,19.31
2019-05-28T19:27:30.804Z,18.79
2019-05-28T19:30:04.098Z,18.36
2019-05-28T19:32:37.595Z,17.94
2019-05-28T19:35:12.321Z,20.38
2019-05-28T19:37:46.261Z,21.34
2019-05-28T19:40:33.997Z,20.25
2019-05-28T19:43:07.860Z,19.25
2019-05-28T19:45:41.195Z,18.60
2019-05-28T19:48:16.326Z,18.11
2019-05-28T19:50:50.024Z,17.70
2019-05-28T19:53:26.817Z,20.21
2019-05-28T19:56:01.500Z,23.58
2019-05-28T19:58:35.241Z,23.04
2019-05-28T20:01:14.656Z,21.53
2019-05-28T20:03:48.308Z,20.38
2019-05-28T20:06:21.529Z,19.65
2019-05-28T20:08:54.940Z,19.05
2019-05-28T20:11:28.236Z,18.56
2019-05-28T20:14:05.454Z,18.17
2019-05-28T20:16:37.017Z,17.77
2019-05-28T20:19:10.410Z,20.05
2019-05-28T20:21:43.786Z,23.42
2019-05-28T20:24:17.051Z,22.63
2019-05-28T20:26:50.291Z,21.19
2019-05-28T20:29:23.531Z,20.20
2019-05-28T20:31:56.858Z,19.45
2019-05-28T20:34:31.039Z,18.88
2019-05-28T20:37:05.781Z,18.45
2019-05-28T20:39:39.475Z,18.07
2019-05-28T20:42:24.336Z,17.70
2019-05-28T20:44:48.037Z,20.20
2019-05-28T20:47:21.343Z,23.35
2019-05-28T20:49:54.640Z,22.45
2019-05-28T20:52:27.963Z,21.04
2019-05-28T20:55:01.322Z,20.01
2019-05-28T20:57:34.686Z,19.30
2019-05-28T21:00:09.160Z,18.80
2019-05-28T21:02:43.387Z,18.32
2019-05-28T21:05:17.081Z,17.96
2019-05-28T21:07:50.474Z,17.62
2019-05-28T21:10:23.865Z,20.05
2019-05-28T21:12:57.259Z,23.51
2019-05-28T21:15:30.655Z,23.16
2019-05-28T21:18:04.307Z,21.56
2019-05-28T21:20:37.749Z,20.45
2019-05-28T21:23:11.365Z,19.66
2019-05-28T21:25:45.184Z,19.07
2019-05-28T21:28:18.632Z,18.55
2019-05-28T21:30:52.449Z,18.12
2019-05-28T21:33:25.844Z,17.74
2019-05-28T21:35:59.515Z,17.45
2019-05-28T21:38:33.933Z,17.11
2019-05-28T21:41:07.132Z,19.59
2019-05-28T21:43:40.434Z,22.97
2019-05-28T21:46:14.213Z,22.63
2019-05-28T21:48:47.668Z,21.07
2019-05-28T21:51:21.185Z,19.99
2019-05-28T21:53:54.845Z,19.22
2019-05-28T21:56:28.778Z,18.63
2019-05-28T21:59:03.739Z,18.14
2019-05-28T22:01:39.561Z,17.72
2019-05-28T22:04:13.055Z,17.39
2019-05-28T22:06:46.536Z,17.07
2019-05-28T22:09:20.038Z,19.50
2019-05-28T22:11:53.507Z,23.00
2019-05-28T22:14:26.994Z,22.62
2019-05-28T22:17:02.617Z,21.04
2019-05-28T22:19:36.871Z,19.93
2019-05-28T22:22:10.419Z,19.18
2019-05-28T22:24:45.124Z,18.56
2019-05-28T22:27:18.609Z,18.08
2019-05-28T22:29:52.034Z,17.66
2019-05-28T22:32:25.475Z,17.29
2019-05-28T22:34:59.905Z,16.93
2019-05-28T22:37:33.802Z,19.34
2019-05-28T22:40:07.812Z,20.46
2019-05-28T22:42:41.705Z,19.35
2019-05-28T22:45:16.152Z,18.39
2019-05-28T22:47:49.665Z,17.72
2019-05-28T22:50:23.635Z,17.22
2019-05-28T22:52:57.797Z,16.80
2019-05-28T22:55:32.499Z,16.48
2019-05-28T22:58:06.719Z,18.90
2019-05-28T23:00:40.162Z,22.34
2019-05-28T23:03:13.664Z,21.69
2019-05-28T23:05:47.135Z,20.22
2019-05-28T23:08:20.419Z,19.17
2019-05-28T23:10:56.863Z,18.36
2019-05-28T23:13:29.725Z,17.82
2019-05-28T23:16:04.242Z,17.37
2019-05-28T23:18:37.730Z,16.97
2019-05-28T23:21:11.145Z,16.64
2019-05-28T23:23:44.537Z,16.34
2019-05-28T23:26:17.817Z,18.83
2019-05-28T23:28:51.103Z,22.08
2019-05-28T23:31:24.451Z,21.27
2019-05-28T23:33:57.826Z,19.84
2019-05-28T23:36:31.183Z,18.83
2019-05-28T23:39:06.973Z,18.10
2019-05-28T23:41:40.465Z,17.57
2019-05-28T23:44:14.250Z,17.11
2019-05-28T23:46:47.650Z,16.74
2019-05-28T23:49:21.003Z,16.38
2019-05-28T23:51:55.230Z,16.08
2019-05-28T23:54:28.574Z,15.80
2019-05-28T23:57:02.034Z,15.52
2019-05-28T23:59:35.364Z,15.28
